ADDS METAR Data INFO
IDs: Format: Raw Decoded Include TAF

Data at: 1808 UTC 18 Feb 2018

KNQA 181750Z 12005KT 10SM SCT250 11/03 A3019
KNQA 181650Z 12009G15KT 10SM SCT250 11/03 A3023
KNQA 181550Z 11009G17KT 10SM SCT250 09/03 A3025
KNQA 181450Z 11009G15KT 10SM BKN250 06/03 A3027
KNQA 181350Z 11009G16KT 10SM BKN250 04/04 A3028
KNQA 181250Z 08007KT 7SM FEW003 03/03 A3028
KNQA 181150Z 06003KT 1/4SM FG OVC002 03/03 A3028
KNQA 181130Z 00000KT 1/2SM FG BKN003 01/01 A3028
KNQA 181125Z AUTO 00000KT 1SM BR BKN003 02/01 A3029 RMK A01
KNQA 181110Z AUTO 00000KT 4SM BR CLR 03/03 A3028 RMK A01
KNQA 181055Z AUTO 00000KT 3SM BR FEW018 03/03 A3028 RMK A01
KNQA 181035Z AUTO 03003KT M1/4SM FG BKN019 01/01 A3027 RMK A01
KNQA 181015Z AUTO 00000KT 3/4SM BR BKN017 BKN021 02/01 A3027 RMK A01
KNQA 180955Z AUTO 00000KT 1 1/4SM BR SCT018 03/03 A3027 RMK A01 VIS 1/2V5
KNQA 180935Z AUTO 00000KT 7SM CLR 04/03 A3026 RMK A01
KNQA 180915Z AUTO 00000KT 2SM BR FEW015 02/02 A3026 RMK A01
KNQA 180855Z AUTO 03003KT 4SM BR SCT015 03/02 A3026 RMK A01
KNQA 180835Z AUTO 00000KT 3/4SM BR OVC015 03/02 A3026 RMK A01
KNQA 180815Z AUTO 03003KT 1/2SM BR BKN014 OVC019 02/01 A3026 RMK A01
KNQA 180755Z AUTO 00000KT 3/4SM BR BKN014 02/02 A3027 RMK A01
KNQA 180735Z AUTO 00000KT 5SM BR CLR 03/02 A3026 RMK A01
KNQA 180715Z AUTO 00000KT 10SM CLR 04/04 A3026 RMK A01
KNQA 180655Z AUTO 00000KT 3SM BR FEW014 FEW021 04/03 A3026 RMK A01
KNQA 180635Z AUTO 00000KT 3/4SM BR VV005 02/02 A3026 RMK A01
KNQA 180615Z AUTO 00000KT 10SM CLR 05/04 A3025 RMK A01
KNQA 180555Z AUTO 00000KT 10SM CLR 05/05 A3025 RMK A01
KNQA 180535Z AUTO 04003KT 10SM CLR 05/05 A3025 RMK A01
KNQA 180515Z AUTO 00000KT 10SM CLR 05/04 A3025 RMK A01
KNQA 180455Z AUTO 00000KT 10SM CLR 05/04 A3026 RMK A01
KNQA 180435Z AUTO 04003KT 10SM CLR 05/04 A3024 RMK A01
KNQA 180415Z AUTO 00000KT 10SM CLR 05/05 A3025 RMK A01
KNQA 180355Z AUTO 00000KT 10SM FEW020 06/05 A3026 RMK A01
KNQA 180335Z AUTO 00000KT 10SM BKN020 06/05 A3025 RMK A01
KNQA 180315Z AUTO 00000KT 10SM OVC021 06/05 A3025 RMK A01
KNQA 180255Z AUTO 00000KT 10SM OVC022 06/05 A3025 RMK A01
KNQA 180235Z AUTO 00000KT 10SM BKN023 06/05 A3024 RMK A01
KNQA 180215Z AUTO 00000KT 10SM FEW023 07/05 A3023 RMK A01
KNQA 180155Z AUTO 00000KT 10SM CLR 07/05 A3022 RMK A01
KNQA 180135Z AUTO 00000KT 10SM SCT021 08/05 A3022 RMK A01
KNQA 180115Z AUTO 35004KT 10SM OVC021 08/05 A3020 RMK A01
KNQA 180055Z AUTO 33005KT 10SM OVC021 08/06 A3020 RMK A01
KNQA 180050Z 33008KT 10SM OVC022 08/06 A3020
KNQA 172350Z 30008KT 10SM OVC015 09/06 A3018
KNQA 172250Z 29007KT 10SM OVC013 09/07 A3014
KNQA 172150Z 25010KT 10SM OVC013 09/07 A3011
KNQA 172050Z 26010KT 10SM OVC011 09/07 A3008
KNQA 171950Z 22007KT 7SM BKN007 BKN011 OVC110 08/07 A3007
KNQA 171850Z 20005KT 6SM -RA BR SCT004 OVC028 07/07 A3007
KNQA 171750Z 18005KT 5SM -RA BR SCT004 OVC028 07/06 A3006
KNQA 171650Z 13005KT 3SM -RA BR BKN004 BKN020 OVC025 06/05 A3007
KNQA 171550Z 11005KT 3SM BR FEW004 BKN021 OVC036 05/04 A3011
KNQA 171450Z 34009KT 2SM -RA BR BKN005 OVC009 05/04 A3013
KNQA 171350Z 05006KT 3SM -RA BR OVC005 05/04 A3003
KNQA 171250Z 05006KT 3SM -RA BR FEW004 OVC013 05/04 A3003
KNQA 171150Z 06006KT 10SM OVC026 05/04 A3005
KNQA 171130Z 06006KT 10SM BKN029 OVC048 05/04 A3007
KNQA 171125Z AUTO 05003KT 9SM BKN029 OVC048 06/04 A3007 RMK A01
KNQA 171105Z AUTO 06003KT 10SM FEW031 OVC048 06/04 A3008 RMK A01
KNQA 171055Z AUTO 03003KT 8SM BKN048 BKN060 OVC070 05/04 A3010 RMK A01
KNQA 171035Z AUTO 00000KT 10SM FEW031 SCT060 OVC070 05/04 A3009 RMK A01
KNQA 171015Z AUTO VRB04KT 10SM FEW027 SCT055 BKN075 05/04 A3007 RMK A01
KNQA 170955Z AUTO VRB04KT 10SM OVC100 05/03 A3008 RMK A01
KNQA 170935Z AUTO VRB04KT 10SM OVC100 05/03 A3010 RMK A01
KNQA 170915Z AUTO VRB03KT 10SM FEW075 OVC100 05/03 A3011 RMK A01
KNQA 170855Z AUTO VRB04KT 9SM FEW047 SCT070 OVC110 05/03 A3012 RMK A01
KNQA 170835Z AUTO 00000KT 10SM FEW046 SCT060 OVC100 06/03 A3014 RMK A01
KNQA 170815Z AUTO VRB05KT 10SM FEW049 FEW060 OVC100 06/03 A3014 RMK A01
KNQA 170750Z 05005KT 10SM FEW055 SCT075 BKN110 06/03 A3016 RMK A01
KNQA 170650Z 00000KT 10SM FEW020 SCT075 OVC110 06/03 A3019